sensor_id;sensor_type;location;lat;lon;timestamp;P1;durP1;ratioP1;P2;durP2;ratioP2
75696;SDS011;64312;44.738;20.612;2022-12-18T00:01:12;31.45;;;13.38;;
75696;SDS011;64312;44.738;20.612;2022-12-18T00:03:46;34.20;;;13.20;;
75696;SDS011;64312;44.738;20.612;2022-12-18T00:06:13;33.83;;;12.48;;
75696;SDS011;64312;44.738;20.612;2022-12-18T00:08:40;30.65;;;13.10;;
75696;SDS011;64312;44.738;20.612;2022-12-18T00:11:07;28.02;;;11.25;;
75696;SDS011;64312;44.738;20.612;2022-12-18T00:13:35;26.70;;;12.45;;
75696;SDS011;64312;44.738;20.612;2022-12-18T00:16:05;29.65;;;11.77;;
75696;SDS011;64312;44.738;20.612;2022-12-18T00:18:36;28.92;;;12.32;;
75696;SDS011;64312;44.738;20.612;2022-12-18T00:21:02;31.10;;;12.55;;
75696;SDS011;64312;44.738;20.612;2022-12-18T00:23:31;32.10;;;13.45;;
75696;SDS011;64312;44.738;20.612;2022-12-18T00:26:02;29.75;;;12.73;;
75696;SDS011;64312;44.738;20.612;2022-12-18T00:28:29;27.02;;;11.43;;
75696;SDS011;64312;44.738;20.612;2022-12-18T00:31:02;32.75;;;13.30;;
75696;SDS011;64312;44.738;20.612;2022-12-18T00:33:29;27.52;;;12.15;;
75696;SDS011;64312;44.738;20.612;2022-12-18T00:35:54;31.75;;;13.60;;
75696;SDS011;64312;44.738;20.612;2022-12-18T00:38:20;38.90;;;14.10;;
75696;SDS011;64312;44.738;20.612;2022-12-18T00:40:46;33.42;;;13.88;;
75696;SDS011;64312;44.738;20.612;2022-12-18T00:43:13;25.05;;;12.10;;
75696;SDS011;64312;44.738;20.612;2022-12-18T00:45:39;30.17;;;12.93;;
75696;SDS011;64312;44.738;20.612;2022-12-18T00:48:06;30.65;;;12.73;;
75696;SDS011;64312;44.738;20.612;2022-12-18T00:50:31;28.50;;;11.98;;
75696;SDS011;64312;44.738;20.612;2022-12-18T00:52:59;31.92;;;11.55;;
75696;SDS011;64312;44.738;20.612;2022-12-18T00:55:25;27.10;;;11.73;;
75696;SDS011;64312;44.738;20.612;2022-12-18T00:57:51;26.70;;;12.55;;
75696;SDS011;64312;44.738;20.612;2022-12-18T01:00:18;26.35;;;12.48;;
75696;SDS011;64312;44.738;20.612;2022-12-18T01:02:44;27.13;;;11.13;;
75696;SDS011;64312;44.738;20.612;2022-12-18T01:05:10;20.98;;;9.18;;
75696;SDS011;64312;44.738;20.612;2022-12-18T01:07:37;26.52;;;10.75;;
75696;SDS011;64312;44.738;20.612;2022-12-18T01:10:03;24.00;;;9.73;;
75696;SDS011;64312;44.738;20.612;2022-12-18T01:12:30;25.55;;;10.82;;
75696;SDS011;64312;44.738;20.612;2022-12-18T01:14:55;24.13;;;10.43;;
75696;SDS011;64312;44.738;20.612;2022-12-18T01:17:21;27.17;;;11.60;;
75696;SDS011;64312;44.738;20.612;2022-12-18T01:19:47;23.50;;;10.48;;
75696;SDS011;64312;44.738;20.612;2022-12-18T01:22:13;20.65;;;9.40;;
75696;SDS011;64312;44.738;20.612;2022-12-18T01:24:39;22.80;;;10.00;;
75696;SDS011;64312;44.738;20.612;2022-12-18T01:27:04;22.40;;;10.45;;
75696;SDS011;64312;44.738;20.612;2022-12-18T01:29:30;24.77;;;10.82;;
75696;SDS011;64312;44.738;20.612;2022-12-18T01:31:56;29.45;;;11.18;;
75696;SDS011;64312;44.738;20.612;2022-12-18T01:34:22;26.88;;;11.75;;
75696;SDS011;64312;44.738;20.612;2022-12-18T01:36:49;25.27;;;11.00;;
75696;SDS011;64312;44.738;20.612;2022-12-18T01:39:18;27.77;;;10.90;;
75696;SDS011;64312;44.738;20.612;2022-12-18T01:41:44;25.45;;;10.25;;
75696;SDS011;64312;44.738;20.612;2022-12-18T01:50:14;22.83;;;9.25;;
75696;SDS011;64312;44.738;20.612;2022-12-18T01:52:44;24.92;;;10.65;;
75696;SDS011;64312;44.738;20.612;2022-12-18T01:55:13;25.85;;;10.38;;
75696;SDS011;64312;44.738;20.612;2022-12-18T01:57:41;27.98;;;11.50;;
75696;SDS011;64312;44.738;20.612;2022-12-18T02:00:09;24.92;;;10.32;;
75696;SDS011;64312;44.738;20.612;2022-12-18T02:02:44;22.73;;;9.23;;
75696;SDS011;64312;44.738;20.612;2022-12-18T02:05:12;26.63;;;10.18;;
75696;SDS011;64312;44.738;20.612;2022-12-18T02:07:56;24.50;;;10.85;;
75696;SDS011;64312;44.738;20.612;2022-12-18T02:10:44;30.08;;;10.65;;
75696;SDS011;64312;44.738;20.612;2022-12-18T02:13:24;26.23;;;10.93;;
75696;SDS011;64312;44.738;20.612;2022-12-18T02:16:45;22.58;;;9.75;;
75696;SDS011;64312;44.738;20.612;2022-12-18T02:19:02;22.65;;;9.45;;
75696;SDS011;64312;44.738;20.612;2022-12-18T02:24:24;24.35;;;9.75;;
75696;SDS011;64312;44.738;20.612;2022-12-18T02:27:03;23.08;;;10.23;;
75696;SDS011;64312;44.738;20.612;2022-12-18T02:29:46;24.27;;;9.68;;
75696;SDS011;64312;44.738;20.612;2022-12-18T02:32:18;21.58;;;8.77;;
75696;SDS011;64312;44.738;20.612;2022-12-18T02:34:48;24.27;;;9.43;;
75696;SDS011;64312;44.738;20.612;2022-12-18T02:37:17;24.77;;;9.88;;
75696;SDS011;64312;44.738;20.612;2022-12-18T02:39:47;22.50;;;9.27;;
75696;SDS011;64312;44.738;20.612;2022-12-18T02:42:15;25.88;;;10.73;;
75696;SDS011;64312;44.738;20.612;2022-12-18T02:44:43;27.35;;;10.70;;
75696;SDS011;64312;44.738;20.612;2022-12-18T02:47:11;25.90;;;9.73;;
75696;SDS011;64312;44.738;20.612;2022-12-18T02:49:49;22.02;;;9.80;;
75696;SDS011;64312;44.738;20.612;2022-12-18T03:03:57;25.60;;;10.55;;
75696;SDS011;64312;44.738;20.612;2022-12-18T03:09:09;22.95;;;9.73;;
75696;SDS011;64312;44.738;20.612;2022-12-18T03:11:38;23.17;;;9.82;;
75696;SDS011;64312;44.738;20.612;2022-12-18T03:14:25;24.48;;;10.60;;
75696;SDS011;64312;44.738;20.612;2022-12-18T03:16:57;30.67;;;11.10;;
75696;SDS011;64312;44.738;20.612;2022-12-18T03:19:27;24.38;;;9.75;;
75696;SDS011;64312;44.738;20.612;2022-12-18T03:21:57;29.73;;;11.68;;
75696;SDS011;64312;44.738;20.612;2022-12-18T03:24:30;26.85;;;10.02;;
75696;SDS011;64312;44.738;20.612;2022-12-18T03:27:00;23.48;;;11.43;;
75696;SDS011;64312;44.738;20.612;2022-12-18T03:29:33;30.27;;;10.90;;
75696;SDS011;64312;44.738;20.612;2022-12-18T03:32:05;25.73;;;10.85;;
75696;SDS011;64312;44.738;20.612;2022-12-18T03:34:37;25.75;;;10.27;;
75696;SDS011;64312;44.738;20.612;2022-12-18T03:37:07;27.90;;;11.35;;
75696;SDS011;64312;44.738;20.612;2022-12-18T03:39:33;26.48;;;10.45;;
75696;SDS011;64312;44.738;20.612;2022-12-18T03:42:11;25.15;;;9.48;;
75696;SDS011;64312;44.738;20.612;2022-12-18T03:50:36;24.83;;;10.43;;
75696;SDS011;64312;44.738;20.612;2022-12-18T03:53:13;26.73;;;9.30;;
75696;SDS011;64312;44.738;20.612;2022-12-18T03:55:40;24.83;;;9.82;;
75696;SDS011;64312;44.738;20.612;2022-12-18T03:58:09;21.83;;;9.80;;
75696;SDS011;64312;44.738;20.612;2022-12-18T04:00:52;24.25;;;10.48;;
75696;SDS011;64312;44.738;20.612;2022-12-18T04:03:20;24.45;;;10.23;;
75696;SDS011;64312;44.738;20.612;2022-12-18T04:05:49;26.05;;;11.10;;
75696;SDS011;64312;44.738;20.612;2022-12-18T04:08:19;20.77;;;9.45;;
75696;SDS011;64312;44.738;20.612;2022-12-18T04:10:54;22.33;;;10.30;;
75696;SDS011;64312;44.738;20.612;2022-12-18T04:13:23;19.35;;;8.38;;
75696;SDS011;64312;44.738;20.612;2022-12-18T04:15:52;22.80;;;9.23;;
75696;SDS011;64312;44.738;20.612;2022-12-18T04:18:20;20.70;;;9.18;;
75696;SDS011;64312;44.738;20.612;2022-12-18T04:20:47;21.80;;;10.05;;
75696;SDS011;64312;44.738;20.612;2022-12-18T04:23:13;21.52;;;9.52;;
75696;SDS011;64312;44.738;20.612;2022-12-18T04:25:39;23.00;;;10.65;;
75696;SDS011;64312;44.738;20.612;2022-12-18T04:28:11;21.88;;;9.40;;
75696;SDS011;64312;44.738;20.612;2022-12-18T04:30:37;23.73;;;8.57;;
75696;SDS011;64312;44.738;20.612;2022-12-18T04:33:07;24.60;;;9.88;;
75696;SDS011;64312;44.738;20.612;2022-12-18T04:35:34;24.55;;;10.93;;
75696;SDS011;64312;44.738;20.612;2022-12-18T04:37:59;25.58;;;10.35;;
75696;SDS011;64312;44.738;20.612;2022-12-18T04:40:26;23.80;;;9.93;;
75696;SDS011;64312;44.738;20.612;2022-12-18T04:42:52;25.77;;;9.63;;
75696;SDS011;64312;44.738;20.612;2022-12-18T04:45:17;26.70;;;10.40;;
75696;SDS011;64312;44.738;20.612;2022-12-18T04:47:44;27.35;;;9.85;;
75696;SDS011;64312;44.738;20.612;2022-12-18T04:50:09;27.55;;;10.48;;
75696;SDS011;64312;44.738;20.612;2022-12-18T04:52:35;20.63;;;9.63;;
75696;SDS011;64312;44.738;20.612;2022-12-18T04:55:01;23.80;;;10.15;;
75696;SDS011;64312;44.738;20.612;2022-12-18T04:57:26;25.77;;;9.65;;
75696;SDS011;64312;44.738;20.612;2022-12-18T04:59:52;25.83;;;10.32;;
75696;SDS011;64312;44.738;20.612;2022-12-18T05:02:19;29.65;;;11.68;;
75696;SDS011;64312;44.738;20.612;2022-12-18T05:04:44;27.17;;;11.90;;
75696;SDS011;64312;44.738;20.612;2022-12-18T05:07:10;27.98;;;10.60;;
75696;SDS011;64312;44.738;20.612;2022-12-18T05:09:35;27.88;;;11.13;;
75696;SDS011;64312;44.738;20.612;2022-12-18T05:12:01;25.13;;;10.00;;
75696;SDS011;64312;44.738;20.612;2022-12-18T05:14:28;28.77;;;11.27;;
75696;SDS011;64312;44.738;20.612;2022-12-18T05:16:54;26.85;;;11.82;;
75696;SDS011;64312;44.738;20.612;2022-12-18T05:19:20;26.95;;;10.80;;
75696;SDS011;64312;44.738;20.612;2022-12-18T05:21:46;28.45;;;11.65;;
75696;SDS011;64312;44.738;20.612;2022-12-18T05:24:11;25.85;;;10.90;;
75696;SDS011;64312;44.738;20.612;2022-12-18T05:26:37;27.23;;;11.68;;
75696;SDS011;64312;44.738;20.612;2022-12-18T05:29:03;26.38;;;10.85;;
75696;SDS011;64312;44.738;20.612;2022-12-18T05:31:28;30.70;;;12.05;;
75696;SDS011;64312;44.738;20.612;2022-12-18T05:33:54;24.48;;;9.77;;
75696;SDS011;64312;44.738;20.612;2022-12-18T05:36:20;26.02;;;10.57;;
75696;SDS011;64312;44.738;20.612;2022-12-18T05:38:45;29.05;;;10.38;;
75696;SDS011;64312;44.738;20.612;2022-12-18T05:41:11;29.70;;;11.55;;
75696;SDS011;64312;44.738;20.612;2022-12-18T05:43:37;27.85;;;11.18;;
75696;SDS011;64312;44.738;20.612;2022-12-18T05:46:06;26.30;;;11.15;;
75696;SDS011;64312;44.738;20.612;2022-12-18T05:48:34;30.00;;;12.63;;
75696;SDS011;64312;44.738;20.612;2022-12-18T05:51:04;23.75;;;11.00;;
75696;SDS011;64312;44.738;20.612;2022-12-18T05:53:31;29.05;;;11.43;;
75696;SDS011;64312;44.738;20.612;2022-12-18T05:56:02;23.60;;;10.55;;
75696;SDS011;64312;44.738;20.612;2022-12-18T05:58:29;28.17;;;10.68;;
75696;SDS011;64312;44.738;20.612;2022-12-18T06:00:55;26.17;;;10.13;;
75696;SDS011;64312;44.738;20.612;2022-12-18T06:03:21;33.38;;;13.35;;
75696;SDS011;64312;44.738;20.612;2022-12-18T06:05:46;28.98;;;11.55;;
75696;SDS011;64312;44.738;20.612;2022-12-18T06:08:13;24.08;;;10.75;;
75696;SDS011;64312;44.738;20.612;2022-12-18T06:10:39;30.17;;;12.75;;
75696;SDS011;64312;44.738;20.612;2022-12-18T06:13:05;23.48;;;10.57;;
75696;SDS011;64312;44.738;20.612;2022-12-18T06:15:32;25.02;;;10.13;;
75696;SDS011;64312;44.738;20.612;2022-12-18T06:17:58;23.40;;;9.10;;
75696;SDS011;64312;44.738;20.612;2022-12-18T06:20:25;22.70;;;9.52;;
75696;SDS011;64312;44.738;20.612;2022-12-18T06:22:51;24.25;;;8.50;;
75696;SDS011;64312;44.738;20.612;2022-12-18T06:25:20;26.75;;;10.82;;
75696;SDS011;64312;44.738;20.612;2022-12-18T06:27:46;25.50;;;9.80;;
75696;SDS011;64312;44.738;20.612;2022-12-18T06:30:14;22.73;;;8.40;;
75696;SDS011;64312;44.738;20.612;2022-12-18T06:32:40;21.80;;;9.50;;
75696;SDS011;64312;44.738;20.612;2022-12-18T06:35:05;22.63;;;8.65;;
75696;SDS011;64312;44.738;20.612;2022-12-18T06:37:31;20.13;;;8.75;;
75696;SDS011;64312;44.738;20.612;2022-12-18T06:39:57;18.50;;;7.60;;
75696;SDS011;64312;44.738;20.612;2022-12-18T06:42:23;14.82;;;6.50;;
75696;SDS011;64312;44.738;20.612;2022-12-18T06:44:49;17.83;;;7.90;;
75696;SDS011;64312;44.738;20.612;2022-12-18T06:47:15;23.98;;;10.05;;
75696;SDS011;64312;44.738;20.612;2022-12-18T06:49:41;25.48;;;11.10;;
75696;SDS011;64312;44.738;20.612;2022-12-18T06:52:06;27.58;;;11.52;;
75696;SDS011;64312;44.738;20.612;2022-12-18T06:54:32;28.30;;;11.75;;
75696;SDS011;64312;44.738;20.612;2022-12-18T06:56:57;24.13;;;9.15;;
75696;SDS011;64312;44.738;20.612;2022-12-18T06:59:23;19.75;;;10.43;;
75696;SDS011;64312;44.738;20.612;2022-12-18T07:01:48;21.75;;;9.43;;
75696;SDS011;64312;44.738;20.612;2022-12-18T07:04:14;19.85;;;8.93;;
75696;SDS011;64312;44.738;20.612;2022-12-18T07:06:39;24.38;;;8.93;;
75696;SDS011;64312;44.738;20.612;2022-12-18T07:09:05;23.08;;;9.07;;
75696;SDS011;64312;44.738;20.612;2022-12-18T07:11:32;33.97;;;14.70;;
75696;SDS011;64312;44.738;20.612;2022-12-18T07:13:58;35.10;;;14.30;;
75696;SDS011;64312;44.738;20.612;2022-12-18T07:16:24;34.88;;;14.43;;
75696;SDS011;64312;44.738;20.612;2022-12-18T07:18:50;39.08;;;16.05;;
75696;SDS011;64312;44.738;20.612;2022-12-18T07:21:17;51.85;;;18.50;;
75696;SDS011;64312;44.738;20.612;2022-12-18T07:23:44;34.15;;;15.02;;
75696;SDS011;64312;44.738;20.612;2022-12-18T07:26:13;32.28;;;14.20;;
75696;SDS011;64312;44.738;20.612;2022-12-18T07:28:40;29.90;;;12.82;;
75696;SDS011;64312;44.738;20.612;2022-12-18T07:31:11;28.98;;;12.73;;
75696;SDS011;64312;44.738;20.612;2022-12-18T07:33:39;27.38;;;13.23;;
75696;SDS011;64312;44.738;20.612;2022-12-18T07:36:06;33.47;;;15.07;;
75696;SDS011;64312;44.738;20.612;2022-12-18T07:38:33;30.15;;;13.80;;
75696;SDS011;64312;44.738;20.612;2022-12-18T07:41:00;33.05;;;12.15;;
75696;SDS011;64312;44.738;20.612;2022-12-18T07:43:26;31.20;;;13.93;;
75696;SDS011;64312;44.738;20.612;2022-12-18T07:45:52;29.33;;;13.75;;
75696;SDS011;64312;44.738;20.612;2022-12-18T07:48:18;34.17;;;14.02;;
75696;SDS011;64312;44.738;20.612;2022-12-18T07:50:43;31.33;;;13.40;;
75696;SDS011;64312;44.738;20.612;2022-12-18T07:53:09;40.45;;;15.13;;
75696;SDS011;64312;44.738;20.612;2022-12-18T07:55:34;29.60;;;13.13;;
75696;SDS011;64312;44.738;20.612;2022-12-18T07:58:01;30.23;;;14.57;;
75696;SDS011;64312;44.738;20.612;2022-12-18T08:00:28;31.40;;;14.20;;
75696;SDS011;64312;44.738;20.612;2022-12-18T08:02:53;35.05;;;14.13;;
75696;SDS011;64312;44.738;20.612;2022-12-18T08:05:19;28.52;;;12.77;;
75696;SDS011;64312;44.738;20.612;2022-12-18T08:07:46;30.58;;;12.38;;
75696;SDS011;64312;44.738;20.612;2022-12-18T08:10:11;25.20;;;10.90;;
75696;SDS011;64312;44.738;20.612;2022-12-18T08:12:38;16.67;;;7.40;;
75696;SDS011;64312;44.738;20.612;2022-12-18T08:15:04;33.85;;;13.27;;
75696;SDS011;64312;44.738;20.612;2022-12-18T08:17:30;31.95;;;14.20;;
75696;SDS011;64312;44.738;20.612;2022-12-18T08:19:56;34.13;;;14.15;;
75696;SDS011;64312;44.738;20.612;2022-12-18T08:22:21;31.75;;;13.50;;
75696;SDS011;64312;44.738;20.612;2022-12-18T08:24:47;27.25;;;11.82;;
75696;SDS011;64312;44.738;20.612;2022-12-18T08:27:12;32.25;;;13.43;;
75696;SDS011;64312;44.738;20.612;2022-12-18T08:29:38;31.45;;;13.02;;
75696;SDS011;64312;44.738;20.612;2022-12-18T08:32:04;33.50;;;13.32;;
75696;SDS011;64312;44.738;20.612;2022-12-18T08:34:29;35.70;;;14.10;;
75696;SDS011;64312;44.738;20.612;2022-12-18T08:36:55;32.30;;;13.40;;
75696;SDS011;64312;44.738;20.612;2022-12-18T08:39:21;29.70;;;12.30;;
75696;SDS011;64312;44.738;20.612;2022-12-18T08:41:47;33.28;;;13.43;;
75696;SDS011;64312;44.738;20.612;2022-12-18T08:44:33;43.17;;;16.30;;
75696;SDS011;64312;44.738;20.612;2022-12-18T08:47:05;35.63;;;13.38;;
75696;SDS011;64312;44.738;20.612;2022-12-18T08:49:31;35.15;;;13.52;;
75696;SDS011;64312;44.738;20.612;2022-12-18T08:51:57;35.80;;;14.18;;
75696;SDS011;64312;44.738;20.612;2022-12-18T08:54:23;26.48;;;11.25;;
75696;SDS011;64312;44.738;20.612;2022-12-18T08:56:50;37.00;;;14.68;;
75696;SDS011;64312;44.738;20.612;2022-12-18T08:59:16;33.75;;;15.85;;
75696;SDS011;64312;44.738;20.612;2022-12-18T09:01:42;36.00;;;14.48;;
75696;SDS011;64312;44.738;20.612;2022-12-18T09:04:09;29.75;;;14.45;;
75696;SDS011;64312;44.738;20.612;2022-12-18T09:06:34;32.78;;;14.32;;
75696;SDS011;64312;44.738;20.612;2022-12-18T09:09:00;33.10;;;13.10;;
75696;SDS011;64312;44.738;20.612;2022-12-18T09:11:26;40.42;;;16.23;;
75696;SDS011;64312;44.738;20.612;2022-12-18T09:13:53;31.35;;;12.55;;
75696;SDS011;64312;44.738;20.612;2022-12-18T09:16:20;35.88;;;15.60;;
75696;SDS011;64312;44.738;20.612;2022-12-18T09:18:46;40.17;;;16.27;;
75696;SDS011;64312;44.738;20.612;2022-12-18T09:21:17;36.45;;;16.25;;
75696;SDS011;64312;44.738;20.612;2022-12-18T09:23:48;39.75;;;17.20;;
75696;SDS011;64312;44.738;20.612;2022-12-18T09:28:40;37.95;;;15.88;;
75696;SDS011;64312;44.738;20.612;2022-12-18T09:31:08;40.15;;;16.48;;
75696;SDS011;64312;44.738;20.612;2022-12-18T09:33:36;41.10;;;16.50;;
75696;SDS011;64312;44.738;20.612;2022-12-18T09:36:04;40.45;;;15.98;;
75696;SDS011;64312;44.738;20.612;2022-12-18T09:38:31;38.90;;;16.67;;
75696;SDS011;64312;44.738;20.612;2022-12-18T09:41:03;40.97;;;17.20;;
75696;SDS011;64312;44.738;20.612;2022-12-18T09:43:55;37.33;;;16.35;;
75696;SDS011;64312;44.738;20.612;2022-12-18T09:46:26;40.40;;;18.23;;
75696;SDS011;64312;44.738;20.612;2022-12-18T09:48:59;38.78;;;16.33;;
75696;SDS011;64312;44.738;20.612;2022-12-18T09:51:39;33.90;;;16.75;;
75696;SDS011;64312;44.738;20.612;2022-12-18T09:54:39;37.90;;;16.70;;
75696;SDS011;64312;44.738;20.612;2022-12-18T09:57:16;35.10;;;16.67;;
75696;SDS011;64312;44.738;20.612;2022-12-18T09:59:55;41.25;;;16.20;;
75696;SDS011;64312;44.738;20.612;2022-12-18T10:02:24;39.08;;;16.92;;
75696;SDS011;64312;44.738;20.612;2022-12-18T10:05:07;36.35;;;15.18;;
75696;SDS011;64312;44.738;20.612;2022-12-18T10:10:13;34.17;;;15.63;;
75696;SDS011;64312;44.738;20.612;2022-12-18T10:13:12;35.97;;;15.18;;
75696;SDS011;64312;44.738;20.612;2022-12-18T10:15:41;38.88;;;15.63;;
75696;SDS011;64312;44.738;20.612;2022-12-18T10:21:15;32.40;;;12.30;;
75696;SDS011;64312;44.738;20.612;2022-12-18T10:24:08;32.28;;;13.60;;
75696;SDS011;64312;44.738;20.612;2022-12-18T10:26:45;32.25;;;14.23;;
75696;SDS011;64312;44.738;20.612;2022-12-18T10:29:12;30.02;;;12.57;;
75696;SDS011;64312;44.738;20.612;2022-12-18T10:31:39;34.28;;;12.50;;
75696;SDS011;64312;44.738;20.612;2022-12-18T10:34:09;28.90;;;12.10;;
75696;SDS011;64312;44.738;20.612;2022-12-18T10:36:36;28.45;;;13.15;;
75696;SDS011;64312;44.738;20.612;2022-12-18T10:39:16;46.55;;;18.58;;
75696;SDS011;64312;44.738;20.612;2022-12-18T10:41:41;34.88;;;13.88;;
75696;SDS011;64312;44.738;20.612;2022-12-18T10:44:21;33.53;;;14.65;;
75696;SDS011;64312;44.738;20.612;2022-12-18T10:46:55;38.45;;;15.00;;
75696;SDS011;64312;44.738;20.612;2022-12-18T10:49:31;46.65;;;18.23;;
75696;SDS011;64312;44.738;20.612;2022-12-18T10:52:15;34.17;;;14.00;;
75696;SDS011;64312;44.738;20.612;2022-12-18T10:54:51;32.72;;;13.25;;
75696;SDS011;64312;44.738;20.612;2022-12-18T10:59:53;32.67;;;16.15;;
75696;SDS011;64312;44.738;20.612;2022-12-18T11:02:27;31.90;;;12.30;;
75696;SDS011;64312;44.738;20.612;2022-12-18T11:05:01;32.97;;;13.32;;
75696;SDS011;64312;44.738;20.612;2022-12-18T11:10:18;34.17;;;14.07;;
75696;SDS011;64312;44.738;20.612;2022-12-18T11:12:45;39.15;;;14.10;;
75696;SDS011;64312;44.738;20.612;2022-12-18T11:15:26;31.10;;;13.40;;
75696;SDS011;64312;44.738;20.612;2022-12-18T11:17:54;35.05;;;14.15;;
75696;SDS011;64312;44.738;20.612;2022-12-18T11:20:22;39.67;;;18.30;;
75696;SDS011;64312;44.738;20.612;2022-12-18T11:22:56;38.58;;;16.75;;
75696;SDS011;64312;44.738;20.612;2022-12-18T11:25:23;43.60;;;18.05;;
75696;SDS011;64312;44.738;20.612;2022-12-18T11:28:08;38.78;;;15.85;;
75696;SDS011;64312;44.738;20.612;2022-12-18T11:31:15;38.20;;;17.35;;
75696;SDS011;64312;44.738;20.612;2022-12-18T11:33:55;30.42;;;13.32;;
75696;SDS011;64312;44.738;20.612;2022-12-18T11:36:22;43.03;;;17.25;;
75696;SDS011;64312;44.738;20.612;2022-12-18T11:38:48;40.13;;;16.30;;
75696;SDS011;64312;44.738;20.612;2022-12-18T11:41:25;32.60;;;15.57;;
75696;SDS011;64312;44.738;20.612;2022-12-18T11:44:13;36.72;;;13.82;;
75696;SDS011;64312;44.738;20.612;2022-12-18T11:46:47;42.28;;;16.20;;
75696;SDS011;64312;44.738;20.612;2022-12-18T11:49:22;49.00;;;20.52;;
75696;SDS011;64312;44.738;20.612;2022-12-18T11:51:53;38.05;;;18.15;;
75696;SDS011;64312;44.738;20.612;2022-12-18T11:54:25;37.22;;;15.65;;
75696;SDS011;64312;44.738;20.612;2022-12-18T12:00:04;30.92;;;13.30;;
75696;SDS011;64312;44.738;20.612;2022-12-18T12:05:53;40.17;;;14.65;;
75696;SDS011;64312;44.738;20.612;2022-12-18T12:10:55;30.92;;;12.82;;
75696;SDS011;64312;44.738;20.612;2022-12-18T12:13:39;36.10;;;14.23;;
75696;SDS011;64312;44.738;20.612;2022-12-18T12:21:54;34.55;;;13.90;;
75696;SDS011;64312;44.738;20.612;2022-12-18T12:24:45;42.95;;;17.90;;
75696;SDS011;64312;44.738;20.612;2022-12-18T12:36:03;37.13;;;14.48;;
75696;SDS011;64312;44.738;20.612;2022-12-18T12:38:41;33.03;;;13.77;;
75696;SDS011;64312;44.738;20.612;2022-12-18T12:41:09;36.00;;;14.38;;
75696;SDS011;64312;44.738;20.612;2022-12-18T12:44:02;29.13;;;12.85;;
75696;SDS011;64312;44.738;20.612;2022-12-18T12:46:32;32.22;;;13.05;;
75696;SDS011;64312;44.738;20.612;2022-12-18T12:49:03;32.92;;;13.82;;
75696;SDS011;64312;44.738;20.612;2022-12-18T12:51:35;35.08;;;12.95;;
75696;SDS011;64312;44.738;20.612;2022-12-18T12:54:05;32.92;;;14.70;;
75696;SDS011;64312;44.738;20.612;2022-12-18T12:56:39;46.40;;;18.95;;
75696;SDS011;64312;44.738;20.612;2022-12-18T13:02:06;41.78;;;15.38;;
75696;SDS011;64312;44.738;20.612;2022-12-18T13:04:47;32.90;;;13.55;;
75696;SDS011;64312;44.738;20.612;2022-12-18T13:07:35;33.63;;;12.38;;
75696;SDS011;64312;44.738;20.612;2022-12-18T13:15:28;42.05;;;15.10;;
75696;SDS011;64312;44.738;20.612;2022-12-18T13:25:55;36.15;;;14.88;;
75696;SDS011;64312;44.738;20.612;2022-12-18T13:31:28;41.08;;;16.80;;
75696;SDS011;64312;44.738;20.612;2022-12-18T13:36:53;37.60;;;16.23;;
75696;SDS011;64312;44.738;20.612;2022-12-18T13:39:32;33.92;;;16.25;;
75696;SDS011;64312;44.738;20.612;2022-12-18T13:44:32;34.47;;;14.38;;
75696;SDS011;64312;44.738;20.612;2022-12-18T13:47:00;33.75;;;14.48;;
75696;SDS011;64312;44.738;20.612;2022-12-18T13:49:36;39.17;;;16.05;;
75696;SDS011;64312;44.738;20.612;2022-12-18T13:54:45;33.53;;;14.32;;
75696;SDS011;64312;44.738;20.612;2022-12-18T13:59:55;35.33;;;14.50;;
75696;SDS011;64312;44.738;20.612;2022-12-18T14:02:26;36.97;;;14.02;;
75696;SDS011;64312;44.738;20.612;2022-12-18T14:04:53;39.55;;;16.70;;
75696;SDS011;64312;44.738;20.612;2022-12-18T14:07:23;61.10;;;23.33;;
75696;SDS011;64312;44.738;20.612;2022-12-18T14:09:59;44.08;;;19.48;;
75696;SDS011;64312;44.738;20.612;2022-12-18T14:12:32;40.60;;;16.92;;
75696;SDS011;64312;44.738;20.612;2022-12-18T14:15:30;36.70;;;14.88;;
75696;SDS011;64312;44.738;20.612;2022-12-18T14:18:23;27.92;;;12.75;;
75696;SDS011;64312;44.738;20.612;2022-12-18T14:20:51;30.83;;;12.15;;
75696;SDS011;64312;44.738;20.612;2022-12-18T14:23:31;29.38;;;12.07;;
75696;SDS011;64312;44.738;20.612;2022-12-18T14:25:59;23.98;;;10.88;;
75696;SDS011;64312;44.738;20.612;2022-12-18T14:28:26;27.23;;;11.38;;
75696;SDS011;64312;44.738;20.612;2022-12-18T14:30:53;35.97;;;14.27;;
75696;SDS011;64312;44.738;20.612;2022-12-18T14:33:20;34.30;;;14.80;;
75696;SDS011;64312;44.738;20.612;2022-12-18T14:38:35;34.10;;;14.15;;
75696;SDS011;64312;44.738;20.612;2022-12-18T14:41:10;38.78;;;15.82;;
75696;SDS011;64312;44.738;20.612;2022-12-18T14:43:39;35.75;;;15.20;;
75696;SDS011;64312;44.738;20.612;2022-12-18T14:46:19;40.78;;;15.55;;
75696;SDS011;64312;44.738;20.612;2022-12-18T14:49:19;36.53;;;16.02;;
75696;SDS011;64312;44.738;20.612;2022-12-18T14:51:57;31.27;;;13.05;;
75696;SDS011;64312;44.738;20.612;2022-12-18T14:54:28;29.30;;;14.68;;
75696;SDS011;64312;44.738;20.612;2022-12-18T14:57:02;41.95;;;17.95;;
75696;SDS011;64312;44.738;20.612;2022-12-18T14:59:30;39.53;;;15.52;;
75696;SDS011;64312;44.738;20.612;2022-12-18T15:04:46;42.42;;;19.27;;
75696;SDS011;64312;44.738;20.612;2022-12-18T15:07:14;37.30;;;15.18;;
75696;SDS011;64312;44.738;20.612;2022-12-18T15:09:42;33.17;;;14.93;;
75696;SDS011;64312;44.738;20.612;2022-12-18T15:12:27;43.20;;;16.63;;
75696;SDS011;64312;44.738;20.612;2022-12-18T15:14:57;38.78;;;15.88;;
75696;SDS011;64312;44.738;20.612;2022-12-18T15:17:23;32.95;;;14.05;;
75696;SDS011;64312;44.738;20.612;2022-12-18T15:19:50;35.55;;;13.73;;
75696;SDS011;64312;44.738;20.612;2022-12-18T15:24:46;39.55;;;16.77;;
75696;SDS011;64312;44.738;20.612;2022-12-18T15:27:20;47.10;;;19.58;;
75696;SDS011;64312;44.738;20.612;2022-12-18T15:32:36;52.78;;;21.90;;
75696;SDS011;64312;44.738;20.612;2022-12-18T15:37:44;44.47;;;19.40;;
75696;SDS011;64312;44.738;20.612;2022-12-18T15:40:14;37.83;;;15.70;;
75696;SDS011;64312;44.738;20.612;2022-12-18T15:42:41;40.30;;;14.85;;
75696;SDS011;64312;44.738;20.612;2022-12-18T15:45:26;32.08;;;13.18;;
75696;SDS011;64312;44.738;20.612;2022-12-18T15:47:52;30.92;;;13.13;;
75696;SDS011;64312;44.738;20.612;2022-12-18T15:50:18;37.92;;;13.63;;
75696;SDS011;64312;44.738;20.612;2022-12-18T15:52:45;28.98;;;12.55;;
75696;SDS011;64312;44.738;20.612;2022-12-18T15:57:58;25.73;;;10.43;;
75696;SDS011;64312;44.738;20.612;2022-12-18T16:00:23;22.85;;;10.43;;
75696;SDS011;64312;44.738;20.612;2022-12-18T16:02:49;21.88;;;9.63;;
75696;SDS011;64312;44.738;20.612;2022-12-18T16:05:15;24.10;;;9.63;;
75696;SDS011;64312;44.738;20.612;2022-12-18T16:07:42;19.58;;;9.25;;
75696;SDS011;64312;44.738;20.612;2022-12-18T16:10:09;17.85;;;7.90;;
75696;SDS011;64312;44.738;20.612;2022-12-18T16:12:35;20.15;;;8.88;;
75696;SDS011;64312;44.738;20.612;2022-12-18T16:15:01;21.90;;;8.57;;
75696;SDS011;64312;44.738;20.612;2022-12-18T16:17:28;25.27;;;8.88;;
75696;SDS011;64312;44.738;20.612;2022-12-18T16:19:53;20.35;;;9.27;;